Airfield :
LOGIN :

Register | Disclaimer

   EN    FR    IT 

 










Legend :    VFR   Marginal VFR   IFR   Intensive IFR   Very Intensive IFR
Visi :
Ceiling :
>= 8 km
>= 3000ft
5 to 8 km
1000 to 3000 ft
1500m to 5 km
500 to 1000 ft
800 to 1500m
200 to 500 ft
< 800m
< 200 ft
Symbols :   Thunderstorms  Fog  Heavy snow  Heavy precipitations  Wind > 20 kt
SIGMETs :     Misc.  Thunderstorms  Icing  Turbulence  Mountain Waves  Volcanic Ashes







- Airport Elevation : 267 ft


EGDR - Culdrose Navy

CURRENT METAR :
  • 150950Z 33017G30KT 9999 VCSH FEW014 08/03 Q1004 RESHRA BLU TEMPO 6000 SHRA SCT010 BKN016TCU GRN

EXPIRED METARs :
  • 150850Z 33018G29KT 9999 VCSH FEW012 SCT022 08/03 Q1003 RESHRA WHT TEMPO 6000 SHRA SCT010 BKN016TCU GRN
  • 150750Z 34021G35KT 9999 VCSH FEW012 SCT022 07/04 Q1001 RESHRA WHT TEMPO 6000 SHRA SCT010 BKN016TCU GRN

TAF TAF EGDR
Valid from the 15 at 09:00 until the 15 at 18:00 UTC


150755Z 1509/1518 33020G35KT 9999 FEW015
TEMPO 1509/1518 6000 SHRA SCT010 BKN016TCU
PROB30
TEMPO 1511/1518 2500 +SHRAGS SCT006 BKN014CB
No reported NOTAMs for that airfield.



MET'MAP, your aeronautical weather chart ! - Copyright ORBIFLY December 2007 - Disclaimer

ORBIFLY MET'MAP TEAM :

Programming & Development : Alexandra Zaïnal
Concept & Development : Baudouin d'Aumeries
Co-Development & Prog : Marc-Olivier Méhu
Technical & hardware support : Manuel Goepfert

Contact : metmap@orbifly.com




SOURCES & CREDITS :

   NOAA